sensor_id;sensor_type;location;lat;lon;timestamp;temperature;humidity
24148;DHT22;12309;51.450;-2.624;2022-10-10T00:01:23;14.40;99.90
24148;DHT22;12309;51.450;-2.624;2022-10-10T00:03:48;14.30;99.90
24148;DHT22;12309;51.450;-2.624;2022-10-10T00:06:15;14.50;99.90
24148;DHT22;12309;51.450;-2.624;2022-10-10T00:08:41;14.40;99.90
24148;DHT22;12309;51.450;-2.624;2022-10-10T00:11:07;14.50;99.90
24148;DHT22;12309;51.450;-2.624;2022-10-10T00:13:33;14.80;99.90
24148;DHT22;12309;51.450;-2.624;2022-10-10T00:15:59;14.30;99.90
24148;DHT22;12309;51.450;-2.624;2022-10-10T00:18:25;14.50;99.90
24148;DHT22;12309;51.450;-2.624;2022-10-10T00:20:52;14.50;99.90
24148;DHT22;12309;51.450;-2.624;2022-10-10T00:23:18;14.50;99.90
24148;DHT22;12309;51.450;-2.624;2022-10-10T00:25:44;14.50;99.90
24148;DHT22;12309;51.450;-2.624;2022-10-10T00:28:10;14.60;99.90
24148;DHT22;12309;51.450;-2.624;2022-10-10T00:30:37;14.40;99.90
24148;DHT22;12309;51.450;-2.624;2022-10-10T00:33:03;14.40;99.90
24148;DHT22;12309;51.450;-2.624;2022-10-10T00:35:28;14.40;99.90
24148;DHT22;12309;51.450;-2.624;2022-10-10T00:37:54;14.40;99.90
24148;DHT22;12309;51.450;-2.624;2022-10-10T00:40:20;14.40;99.90
24148;DHT22;12309;51.450;-2.624;2022-10-10T00:42:46;14.30;99.90
24148;DHT22;12309;51.450;-2.624;2022-10-10T00:45:36;14.60;99.90
24148;DHT22;12309;51.450;-2.624;2022-10-10T00:48:05;14.50;99.90
24148;DHT22;12309;51.450;-2.624;2022-10-10T00:50:34;14.70;99.90
24148;DHT22;12309;51.450;-2.624;2022-10-10T00:53:03;14.40;99.90
24148;DHT22;12309;51.450;-2.624;2022-10-10T00:57:56;17.00;99.90
24148;DHT22;12309;51.450;-2.624;2022-10-10T01:00:22;14.70;99.90
24148;DHT22;12309;51.450;-2.624;2022-10-10T01:02:48;14.60;99.90
24148;DHT22;12309;51.450;-2.624;2022-10-10T01:05:13;14.40;99.90
24148;DHT22;12309;51.450;-2.624;2022-10-10T01:07:39;14.60;99.90
24148;DHT22;12309;51.450;-2.624;2022-10-10T01:10:14;14.40;99.90
24148;DHT22;12309;51.450;-2.624;2022-10-10T01:13:13;14.50;99.90
24148;DHT22;12309;51.450;-2.624;2022-10-10T01:15:56;14.40;99.90
24148;DHT22;12309;51.450;-2.624;2022-10-10T01:18:41;14.50;99.90
24148;DHT22;12309;51.450;-2.624;2022-10-10T01:21:37;14.40;99.90
24148;DHT22;12309;51.450;-2.624;2022-10-10T01:29:33;14.20;99.90
24148;DHT22;12309;51.450;-2.624;2022-10-10T01:32:13;14.10;99.90
24148;DHT22;12309;51.450;-2.624;2022-10-10T01:37:21;14.20;99.90
24148;DHT22;12309;51.450;-2.624;2022-10-10T01:39:56;14.10;99.90
24148;DHT22;12309;51.450;-2.624;2022-10-10T01:42:39;14.10;99.90
24148;DHT22;12309;51.450;-2.624;2022-10-10T01:45:07;14.10;99.90
24148;DHT22;12309;51.450;-2.624;2022-10-10T01:47:32;14.00;99.90
24148;DHT22;12309;51.450;-2.624;2022-10-10T01:50:02;14.00;99.90
24148;DHT22;12309;51.450;-2.624;2022-10-10T02:04:40;14.00;99.90
24148;DHT22;12309;51.450;-2.624;2022-10-10T02:07:18;13.90;99.90
24148;DHT22;12309;51.450;-2.624;2022-10-10T02:09:46;13.90;99.90
24148;DHT22;12309;51.450;-2.624;2022-10-10T02:12:14;13.90;99.90
24148;DHT22;12309;51.450;-2.624;2022-10-10T02:14:43;14.00;99.90
24148;DHT22;12309;51.450;-2.624;2022-10-10T02:17:12;14.00;99.90
24148;DHT22;12309;51.450;-2.624;2022-10-10T02:19:46;14.00;99.90
24148;DHT22;12309;51.450;-2.624;2022-10-10T02:22:13;14.10;99.90
24148;DHT22;12309;51.450;-2.624;2022-10-10T02:24:39;14.00;99.90
24148;DHT22;12309;51.450;-2.624;2022-10-10T02:27:13;13.90;99.90
24148;DHT22;12309;51.450;-2.624;2022-10-10T02:29:42;13.90;99.90
24148;DHT22;12309;51.450;-2.624;2022-10-10T02:32:20;13.80;99.90
24148;DHT22;12309;51.450;-2.624;2022-10-10T02:34:53;13.90;99.90
24148;DHT22;12309;51.450;-2.624;2022-10-10T02:37:20;13.90;99.90
24148;DHT22;12309;51.450;-2.624;2022-10-10T02:39:49;13.90;99.90
24148;DHT22;12309;51.450;-2.624;2022-10-10T02:42:18;14.10;99.90
24148;DHT22;12309;51.450;-2.624;2022-10-10T02:44:45;13.80;99.90
24148;DHT22;12309;51.450;-2.624;2022-10-10T02:47:12;13.70;99.90
24148;DHT22;12309;51.450;-2.624;2022-10-10T02:49:37;13.70;99.90
24148;DHT22;12309;51.450;-2.624;2022-10-10T02:52:03;13.70;99.90
24148;DHT22;12309;51.450;-2.624;2022-10-10T02:54:29;13.70;99.90
24148;DHT22;12309;51.450;-2.624;2022-10-10T02:56:54;13.70;99.90
24148;DHT22;12309;51.450;-2.624;2022-10-10T02:59:20;13.80;99.90
24148;DHT22;12309;51.450;-2.624;2022-10-10T03:01:46;13.80;99.90
24148;DHT22;12309;51.450;-2.624;2022-10-10T03:04:12;13.70;99.90
24148;DHT22;12309;51.450;-2.624;2022-10-10T03:06:38;13.70;99.90
24148;DHT22;12309;51.450;-2.624;2022-10-10T03:11:30;13.80;99.90
24148;DHT22;12309;51.450;-2.624;2022-10-10T03:13:56;13.80;99.90
24148;DHT22;12309;51.450;-2.624;2022-10-10T03:16:21;13.80;99.90
24148;DHT22;12309;51.450;-2.624;2022-10-10T03:21:13;13.80;99.90
24148;DHT22;12309;51.450;-2.624;2022-10-10T03:23:39;13.80;99.90
24148;DHT22;12309;51.450;-2.624;2022-10-10T03:26:05;13.90;99.90
24148;DHT22;12309;51.450;-2.624;2022-10-10T03:28:31;13.70;99.90
24148;DHT22;12309;51.450;-2.624;2022-10-10T03:30:56;13.80;99.90
24148;DHT22;12309;51.450;-2.624;2022-10-10T03:33:22;13.80;99.90
24148;DHT22;12309;51.450;-2.624;2022-10-10T03:35:49;13.90;99.90
24148;DHT22;12309;51.450;-2.624;2022-10-10T03:38:15;13.90;99.90
24148;DHT22;12309;51.450;-2.624;2022-10-10T03:40:42;13.70;99.90
24148;DHT22;12309;51.450;-2.624;2022-10-10T03:43:12;13.90;99.90
24148;DHT22;12309;51.450;-2.624;2022-10-10T03:45:40;13.90;99.90
24148;DHT22;12309;51.450;-2.624;2022-10-10T03:48:06;13.80;99.90
24148;DHT22;12309;51.450;-2.624;2022-10-10T03:50:32;13.90;99.90
24148;DHT22;12309;51.450;-2.624;2022-10-10T03:52:57;13.90;99.90
24148;DHT22;12309;51.450;-2.624;2022-10-10T03:55:23;14.00;99.90
24148;DHT22;12309;51.450;-2.624;2022-10-10T03:57:49;13.80;99.90
24148;DHT22;12309;51.450;-2.624;2022-10-10T04:00:14;13.70;99.90
24148;DHT22;12309;51.450;-2.624;2022-10-10T04:02:40;14.40;99.90
24148;DHT22;12309;51.450;-2.624;2022-10-10T04:05:06;13.80;99.90
24148;DHT22;12309;51.450;-2.624;2022-10-10T04:07:32;13.90;99.90
24148;DHT22;12309;51.450;-2.624;2022-10-10T04:09:58;13.70;99.90
24148;DHT22;12309;51.450;-2.624;2022-10-10T04:12:23;13.80;99.90
24148;DHT22;12309;51.450;-2.624;2022-10-10T04:14:49;13.70;99.90
24148;DHT22;12309;51.450;-2.624;2022-10-10T04:17:15;13.50;99.90
24148;DHT22;12309;51.450;-2.624;2022-10-10T04:19:40;13.40;99.90
24148;DHT22;12309;51.450;-2.624;2022-10-10T04:22:06;13.50;99.90
24148;DHT22;12309;51.450;-2.624;2022-10-10T04:24:32;13.30;99.90
24148;DHT22;12309;51.450;-2.624;2022-10-10T04:26:57;13.10;99.90
24148;DHT22;12309;51.450;-2.624;2022-10-10T04:29:23;13.20;99.90
24148;DHT22;12309;51.450;-2.624;2022-10-10T04:31:49;13.00;99.90
24148;DHT22;12309;51.450;-2.624;2022-10-10T04:34:14;13.00;99.90
24148;DHT22;12309;51.450;-2.624;2022-10-10T04:36:40;13.00;99.90
24148;DHT22;12309;51.450;-2.624;2022-10-10T04:39:06;12.80;99.90
24148;DHT22;12309;51.450;-2.624;2022-10-10T04:41:32;13.10;99.90
24148;DHT22;12309;51.450;-2.624;2022-10-10T04:43:57;12.60;99.90
24148;DHT22;12309;51.450;-2.624;2022-10-10T04:46:23;12.70;99.90
24148;DHT22;12309;51.450;-2.624;2022-10-10T04:48:49;12.40;99.90
24148;DHT22;12309;51.450;-2.624;2022-10-10T04:51:15;12.40;99.90
24148;DHT22;12309;51.450;-2.624;2022-10-10T04:53:41;12.20;99.90
24148;DHT22;12309;51.450;-2.624;2022-10-10T04:56:06;11.90;99.90
24148;DHT22;12309;51.450;-2.624;2022-10-10T04:58:32;12.90;99.90
24148;DHT22;12309;51.450;-2.624;2022-10-10T05:03:24;11.70;99.90
24148;DHT22;12309;51.450;-2.624;2022-10-10T05:05:51;11.70;99.90
24148;DHT22;12309;51.450;-2.624;2022-10-10T05:10:44;11.30;99.90
24148;DHT22;12309;51.450;-2.624;2022-10-10T05:13:11;11.10;99.90
24148;DHT22;12309;51.450;-2.624;2022-10-10T05:15:38;11.30;99.90
24148;DHT22;12309;51.450;-2.624;2022-10-10T05:18:04;11.20;99.90
24148;DHT22;12309;51.450;-2.624;2022-10-10T05:20:31;11.10;99.90
24148;DHT22;12309;51.450;-2.624;2022-10-10T05:22:56;11.10;99.90
24148;DHT22;12309;51.450;-2.624;2022-10-10T05:25:22;11.20;99.90
24148;DHT22;12309;51.450;-2.624;2022-10-10T05:27:48;11.20;99.90
24148;DHT22;12309;51.450;-2.624;2022-10-10T05:30:14;11.30;99.90
24148;DHT22;12309;51.450;-2.624;2022-10-10T05:35:06;11.20;99.90
24148;DHT22;12309;51.450;-2.624;2022-10-10T05:39:58;11.20;99.90
24148;DHT22;12309;51.450;-2.624;2022-10-10T05:42:23;11.20;99.90
24148;DHT22;12309;51.450;-2.624;2022-10-10T05:47:15;11.20;99.90
24148;DHT22;12309;51.450;-2.624;2022-10-10T05:49:41;11.00;99.90
24148;DHT22;12309;51.450;-2.624;2022-10-10T05:52:07;11.10;99.90
24148;DHT22;12309;51.450;-2.624;2022-10-10T05:59:24;11.20;99.90
24148;DHT22;12309;51.450;-2.624;2022-10-10T06:04:18;11.20;99.90
24148;DHT22;12309;51.450;-2.624;2022-10-10T06:06:44;11.50;99.90
24148;DHT22;12309;51.450;-2.624;2022-10-10T06:09:09;11.10;99.90
24148;DHT22;12309;51.450;-2.624;2022-10-10T06:11:35;11.10;99.90
24148;DHT22;12309;51.450;-2.624;2022-10-10T06:14:01;11.00;99.90
24148;DHT22;12309;51.450;-2.624;2022-10-10T06:16:26;11.00;99.90
24148;DHT22;12309;51.450;-2.624;2022-10-10T06:18:52;11.10;99.90
24148;DHT22;12309;51.450;-2.624;2022-10-10T06:21:21;10.90;99.90
24148;DHT22;12309;51.450;-2.624;2022-10-10T06:23:47;11.30;99.90
24148;DHT22;12309;51.450;-2.624;2022-10-10T06:28:39;10.90;99.90
24148;DHT22;12309;51.450;-2.624;2022-10-10T06:31:06;11.10;99.90
24148;DHT22;12309;51.450;-2.624;2022-10-10T06:33:33;11.00;99.90
24148;DHT22;12309;51.450;-2.624;2022-10-10T06:36:04;11.00;99.90
24148;DHT22;12309;51.450;-2.624;2022-10-10T06:38:31;11.00;99.90
24148;DHT22;12309;51.450;-2.624;2022-10-10T06:41:01;11.20;99.90
24148;DHT22;12309;51.450;-2.624;2022-10-10T06:43:27;10.90;99.90
24148;DHT22;12309;51.450;-2.624;2022-10-10T06:45:53;11.10;99.90
24148;DHT22;12309;51.450;-2.624;2022-10-10T06:48:19;11.40;99.90
24148;DHT22;12309;51.450;-2.624;2022-10-10T06:51:00;10.90;99.90
24148;DHT22;12309;51.450;-2.624;2022-10-10T06:53:26;10.90;99.90
24148;DHT22;12309;51.450;-2.624;2022-10-10T06:55:53;10.80;99.90
24148;DHT22;12309;51.450;-2.624;2022-10-10T06:58:23;10.70;99.90
24148;DHT22;12309;51.450;-2.624;2022-10-10T07:00:51;10.80;99.90
24148;DHT22;12309;51.450;-2.624;2022-10-10T07:05:43;10.90;99.90
24148;DHT22;12309;51.450;-2.624;2022-10-10T07:08:09;10.60;99.90
24148;DHT22;12309;51.450;-2.624;2022-10-10T07:10:35;10.70;99.90
24148;DHT22;12309;51.450;-2.624;2022-10-10T07:13:01;10.70;99.90
24148;DHT22;12309;51.450;-2.624;2022-10-10T07:15:26;10.50;99.90
24148;DHT22;12309;51.450;-2.624;2022-10-10T07:17:56;10.40;99.90
24148;DHT22;12309;51.450;-2.624;2022-10-10T07:20:23;10.60;99.90
24148;DHT22;12309;51.450;-2.624;2022-10-10T07:22:48;10.50;99.90
24148;DHT22;12309;51.450;-2.624;2022-10-10T07:25:14;10.60;99.90
24148;DHT22;12309;51.450;-2.624;2022-10-10T07:27:40;10.70;99.90
24148;DHT22;12309;51.450;-2.624;2022-10-10T07:30:06;10.30;99.90
24148;DHT22;12309;51.450;-2.624;2022-10-10T07:32:31;10.80;99.90
24148;DHT22;12309;51.450;-2.624;2022-10-10T07:34:57;10.60;99.90
24148;DHT22;12309;51.450;-2.624;2022-10-10T07:37:23;10.60;99.90
24148;DHT22;12309;51.450;-2.624;2022-10-10T07:39:52;10.60;99.90
24148;DHT22;12309;51.450;-2.624;2022-10-10T07:42:18;10.90;99.90
24148;DHT22;12309;51.450;-2.624;2022-10-10T07:47:10;10.80;99.90
24148;DHT22;12309;51.450;-2.624;2022-10-10T07:49:36;10.70;99.90
24148;DHT22;12309;51.450;-2.624;2022-10-10T07:52:01;10.70;99.90
24148;DHT22;12309;51.450;-2.624;2022-10-10T07:54:28;10.90;99.90
24148;DHT22;12309;51.450;-2.624;2022-10-10T07:56:54;10.90;99.90
24148;DHT22;12309;51.450;-2.624;2022-10-10T08:01:46;10.90;99.90
24148;DHT22;12309;51.450;-2.624;2022-10-10T08:04:11;11.00;99.90
24148;DHT22;12309;51.450;-2.624;2022-10-10T08:06:37;11.00;99.90
24148;DHT22;12309;51.450;-2.624;2022-10-10T08:09:02;10.90;99.90
24148;DHT22;12309;51.450;-2.624;2022-10-10T08:13:54;11.30;99.90
24148;DHT22;12309;51.450;-2.624;2022-10-10T08:16:20;11.20;99.90
24148;DHT22;12309;51.450;-2.624;2022-10-10T08:21:13;11.60;99.90
24148;DHT22;12309;51.450;-2.624;2022-10-10T08:26:08;11.90;99.90
24148;DHT22;12309;51.450;-2.624;2022-10-10T08:28:34;12.00;99.90
24148;DHT22;12309;51.450;-2.624;2022-10-10T08:31:11;12.10;99.90
24148;DHT22;12309;51.450;-2.624;2022-10-10T08:33:37;12.20;99.90
24148;DHT22;12309;51.450;-2.624;2022-10-10T08:36:05;12.30;99.90
24148;DHT22;12309;51.450;-2.624;2022-10-10T08:38:31;12.00;99.90
24148;DHT22;12309;51.450;-2.624;2022-10-10T08:43:41;12.60;99.90
24148;DHT22;12309;51.450;-2.624;2022-10-10T08:48:53;12.60;99.90
24148;DHT22;12309;51.450;-2.624;2022-10-10T08:51:27;12.50;99.90
24148;DHT22;12309;51.450;-2.624;2022-10-10T08:53:58;12.90;99.90
24148;DHT22;12309;51.450;-2.624;2022-10-10T08:56:30;12.60;99.90
24148;DHT22;12309;51.450;-2.624;2022-10-10T08:59:13;13.00;99.90
24148;DHT22;12309;51.450;-2.624;2022-10-10T09:01:39;12.70;99.90
24148;DHT22;12309;51.450;-2.624;2022-10-10T09:04:05;12.80;99.90
24148;DHT22;12309;51.450;-2.624;2022-10-10T09:09:12;12.60;99.90
24148;DHT22;12309;51.450;-2.624;2022-10-10T09:15:03;13.20;99.90
24148;DHT22;12309;51.450;-2.624;2022-10-10T09:17:57;13.10;99.90
24148;DHT22;12309;51.450;-2.624;2022-10-10T09:20:50;13.10;99.90
24148;DHT22;12309;51.450;-2.624;2022-10-10T09:23:33;14.20;99.90
24148;DHT22;12309;51.450;-2.624;2022-10-10T09:26:12;13.30;99.90
24148;DHT22;12309;51.450;-2.624;2022-10-10T09:31:17;13.30;99.90
24148;DHT22;12309;51.450;-2.624;2022-10-10T09:34:03;13.10;99.90
24148;DHT22;12309;51.450;-2.624;2022-10-10T09:36:34;13.30;99.90
24148;DHT22;12309;51.450;-2.624;2022-10-10T09:44:19;13.70;99.90
24148;DHT22;12309;51.450;-2.624;2022-10-10T09:46:45;13.80;99.90
24148;DHT22;12309;51.450;-2.624;2022-10-10T09:49:15;14.10;99.90
24148;DHT22;12309;51.450;-2.624;2022-10-10T09:51:42;13.90;99.90
24148;DHT22;12309;51.450;-2.624;2022-10-10T09:54:09;14.10;99.90
24148;DHT22;12309;51.450;-2.624;2022-10-10T09:56:43;14.10;99.90
24148;DHT22;12309;51.450;-2.624;2022-10-10T10:02:12;14.60;99.90
24148;DHT22;12309;51.450;-2.624;2022-10-10T10:07:17;14.70;99.90
24148;DHT22;12309;51.450;-2.624;2022-10-10T10:10:14;14.80;99.90
24148;DHT22;12309;51.450;-2.624;2022-10-10T10:12:42;14.90;99.90
24148;DHT22;12309;51.450;-2.624;2022-10-10T10:15:20;14.90;99.90
24148;DHT22;12309;51.450;-2.624;2022-10-10T10:20:43;15.40;99.90
24148;DHT22;12309;51.450;-2.624;2022-10-10T10:24:00;15.70;99.90
24148;DHT22;12309;51.450;-2.624;2022-10-10T10:38:11;18.70;99.90
24148;DHT22;12309;51.450;-2.624;2022-10-10T10:40:46;20.50;99.90
24148;DHT22;12309;51.450;-2.624;2022-10-10T10:48:26;18.60;99.90
24148;DHT22;12309;51.450;-2.624;2022-10-10T10:53:51;19.50;99.90
24148;DHT22;12309;51.450;-2.624;2022-10-10T10:56:40;20.20;99.90
24148;DHT22;12309;51.450;-2.624;2022-10-10T10:59:27;21.10;99.90
24148;DHT22;12309;51.450;-2.624;2022-10-10T11:14:53;26.60;99.90
24148;DHT22;12309;51.450;-2.624;2022-10-10T11:22:49;28.10;99.90
24148;DHT22;12309;51.450;-2.624;2022-10-10T11:25:25;28.60;99.90
24148;DHT22;12309;51.450;-2.624;2022-10-10T11:28:32;27.20;99.90
24148;DHT22;12309;51.450;-2.624;2022-10-10T11:31:00;28.60;99.90
24148;DHT22;12309;51.450;-2.624;2022-10-10T11:33:34;28.80;99.90
24148;DHT22;12309;51.450;-2.624;2022-10-10T11:36:21;28.80;99.90
24148;DHT22;12309;51.450;-2.624;2022-10-10T11:39:03;29.30;99.90
24148;DHT22;12309;51.450;-2.624;2022-10-10T11:41:43;29.10;99.90
24148;DHT22;12309;51.450;-2.624;2022-10-10T11:44:26;29.10;99.90
24148;DHT22;12309;51.450;-2.624;2022-10-10T11:49:27;27.90;99.90
24148;DHT22;12309;51.450;-2.624;2022-10-10T12:00:16;28.40;99.90
24148;DHT22;12309;51.450;-2.624;2022-10-10T12:02:44;27.70;99.90
24148;DHT22;12309;51.450;-2.624;2022-10-10T12:05:22;28.30;99.90
24148;DHT22;12309;51.450;-2.624;2022-10-10T12:10:26;27.60;99.90
24148;DHT22;12309;51.450;-2.624;2022-10-10T12:12:58;27.90;99.90
24148;DHT22;12309;51.450;-2.624;2022-10-10T12:15:33;28.20;99.90
24148;DHT22;12309;51.450;-2.624;2022-10-10T12:17:59;28.10;99.90
24148;DHT22;12309;51.450;-2.624;2022-10-10T12:23:17;28.20;99.90
24148;DHT22;12309;51.450;-2.624;2022-10-10T12:25:44;28.70;99.90
24148;DHT22;12309;51.450;-2.624;2022-10-10T12:44:42;28.70;99.90
24148;DHT22;12309;51.450;-2.624;2022-10-10T12:49:54;29.20;99.90
24148;DHT22;12309;51.450;-2.624;2022-10-10T12:52:35;28.70;99.90
24148;DHT22;12309;51.450;-2.624;2022-10-10T12:55:05;28.30;99.90
24148;DHT22;12309;51.450;-2.624;2022-10-10T12:57:44;29.00;99.90
24148;DHT22;12309;51.450;-2.624;2022-10-10T13:00:18;29.20;99.90
24148;DHT22;12309;51.450;-2.624;2022-10-10T13:02:49;30.40;99.90
24148;DHT22;12309;51.450;-2.624;2022-10-10T13:05:19;30.00;99.90
24148;DHT22;12309;51.450;-2.624;2022-10-10T13:07:49;29.00;99.90
24148;DHT22;12309;51.450;-2.624;2022-10-10T13:10:25;28.70;99.90
24148;DHT22;12309;51.450;-2.624;2022-10-10T13:13:04;28.80;99.90
24148;DHT22;12309;51.450;-2.624;2022-10-10T13:15:31;28.10;99.90
24148;DHT22;12309;51.450;-2.624;2022-10-10T13:17:57;28.00;99.90
24148;DHT22;12309;51.450;-2.624;2022-10-10T13:20:38;26.30;99.90
24148;DHT22;12309;51.450;-2.624;2022-10-10T13:23:10;26.80;99.90
24148;DHT22;12309;51.450;-2.624;2022-10-10T13:25:37;27.00;99.90
24148;DHT22;12309;51.450;-2.624;2022-10-10T13:28:12;26.70;99.90
24148;DHT22;12309;51.450;-2.624;2022-10-10T13:30:40;26.20;99.90
24148;DHT22;12309;51.450;-2.624;2022-10-10T13:33:14;26.20;99.90
24148;DHT22;12309;51.450;-2.624;2022-10-10T13:35:41;26.40;99.90
24148;DHT22;12309;51.450;-2.624;2022-10-10T13:38:10;26.80;99.90
24148;DHT22;12309;51.450;-2.624;2022-10-10T13:40:39;26.70;99.90
24148;DHT22;12309;51.450;-2.624;2022-10-10T13:43:14;26.90;99.90
24148;DHT22;12309;51.450;-2.624;2022-10-10T13:45:56;26.70;99.90
24148;DHT22;12309;51.450;-2.624;2022-10-10T13:48:37;25.70;99.90
24148;DHT22;12309;51.450;-2.624;2022-10-10T13:51:09;25.90;99.90
24148;DHT22;12309;51.450;-2.624;2022-10-10T13:53:47;26.20;99.90
24148;DHT22;12309;51.450;-2.624;2022-10-10T13:56:24;26.40;99.90
24148;DHT22;12309;51.450;-2.624;2022-10-10T14:01:32;27.30;99.90
24148;DHT22;12309;51.450;-2.624;2022-10-10T14:06:27;28.30;99.90
24148;DHT22;12309;51.450;-2.624;2022-10-10T14:08:56;27.10;99.90
24148;DHT22;12309;51.450;-2.624;2022-10-10T14:11:28;26.90;99.90
24148;DHT22;12309;51.450;-2.624;2022-10-10T14:14:12;27.00;99.90
24148;DHT22;12309;51.450;-2.624;2022-10-10T14:16:39;27.60;99.90
24148;DHT22;12309;51.450;-2.624;2022-10-10T14:19:16;27.00;99.90
24148;DHT22;12309;51.450;-2.624;2022-10-10T14:21:42;27.10;99.90
24148;DHT22;12309;51.450;-2.624;2022-10-10T14:24:07;28.00;99.90
24148;DHT22;12309;51.450;-2.624;2022-10-10T14:26:34;27.80;99.90
24148;DHT22;12309;51.450;-2.624;2022-10-10T14:29:00;27.80;99.90
24148;DHT22;12309;51.450;-2.624;2022-10-10T14:31:26;27.80;99.90
24148;DHT22;12309;51.450;-2.624;2022-10-10T14:33:53;27.80;99.90
24148;DHT22;12309;51.450;-2.624;2022-10-10T14:36:19;28.40;99.90
24148;DHT22;12309;51.450;-2.624;2022-10-10T14:38:45;28.30;99.90
24148;DHT22;12309;51.450;-2.624;2022-10-10T14:41:11;28.20;99.90
24148;DHT22;12309;51.450;-2.624;2022-10-10T14:43:40;27.70;99.90
24148;DHT22;12309;51.450;-2.624;2022-10-10T14:46:11;27.40;99.90
24148;DHT22;12309;51.450;-2.624;2022-10-10T14:48:39;26.50;99.90
24148;DHT22;12309;51.450;-2.624;2022-10-10T14:51:09;26.50;99.90
24148;DHT22;12309;51.450;-2.624;2022-10-10T14:53:35;26.60;99.90
24148;DHT22;12309;51.450;-2.624;2022-10-10T14:56:00;26.50;99.90
24148;DHT22;12309;51.450;-2.624;2022-10-10T14:58:26;26.70;99.90
24148;DHT22;12309;51.450;-2.624;2022-10-10T15:00:52;26.70;99.90
24148;DHT22;12309;51.450;-2.624;2022-10-10T15:03:18;26.70;99.90
24148;DHT22;12309;51.450;-2.624;2022-10-10T15:05:44;26.80;99.90
24148;DHT22;12309;51.450;-2.624;2022-10-10T15:08:16;27.00;99.90
24148;DHT22;12309;51.450;-2.624;2022-10-10T15:10:42;26.10;99.90
24148;DHT22;12309;51.450;-2.624;2022-10-10T15:13:11;26.10;99.90
24148;DHT22;12309;51.450;-2.624;2022-10-10T15:15:37;26.20;99.90
24148;DHT22;12309;51.450;-2.624;2022-10-10T15:18:03;26.10;99.90
24148;DHT22;12309;51.450;-2.624;2022-10-10T15:20:29;26.30;99.90
24148;DHT22;12309;51.450;-2.624;2022-10-10T15:23:02;26.50;99.90
24148;DHT22;12309;51.450;-2.624;2022-10-10T15:25:28;26.40;99.90
24148;DHT22;12309;51.450;-2.624;2022-10-10T15:27:55;26.50;99.90
24148;DHT22;12309;51.450;-2.624;2022-10-10T15:32:47;26.00;99.90
24148;DHT22;12309;51.450;-2.624;2022-10-10T15:35:16;25.60;99.90
24148;DHT22;12309;51.450;-2.624;2022-10-10T15:37:42;25.50;99.90
24148;DHT22;12309;51.450;-2.624;2022-10-10T15:40:09;25.40;99.90
24148;DHT22;12309;51.450;-2.624;2022-10-10T15:42:35;25.70;99.90
24148;DHT22;12309;51.450;-2.624;2022-10-10T15:45:01;25.50;99.90
24148;DHT22;12309;51.450;-2.624;2022-10-10T15:47:26;25.00;99.90
24148;DHT22;12309;51.450;-2.624;2022-10-10T15:49:52;25.20;99.90
24148;DHT22;12309;51.450;-2.624;2022-10-10T15:52:18;25.00;99.90
24148;DHT22;12309;51.450;-2.624;2022-10-10T15:54:48;24.50;99.90
24148;DHT22;12309;51.450;-2.624;2022-10-10T15:57:14;24.20;99.90
24148;DHT22;12309;51.450;-2.624;2022-10-10T15:59:41;24.00;99.90
24148;DHT22;12309;51.450;-2.624;2022-10-10T16:02:08;24.20;99.90
24148;DHT22;12309;51.450;-2.624;2022-10-10T16:04:33;24.30;99.90
24148;DHT22;12309;51.450;-2.624;2022-10-10T16:06:59;24.10;99.90
24148;DHT22;12309;51.450;-2.624;2022-10-10T16:09:24;23.40;99.90
24148;DHT22;12309;51.450;-2.624;2022-10-10T16:11:50;23.50;99.90
24148;DHT22;12309;51.450;-2.624;2022-10-10T16:14:18;23.50;99.90
24148;DHT22;12309;51.450;-2.624;2022-10-10T16:16:44;24.10;99.90
24148;DHT22;12309;51.450;-2.624;2022-10-10T16:19:10;24.00;99.90
24148;DHT22;12309;51.450;-2.624;2022-10-10T16:21:35;24.40;99.90
24148;DHT22;12309;51.450;-2.624;2022-10-10T16:24:01;24.00;99.90
24148;DHT22;12309;51.450;-2.624;2022-10-10T16:26:29;24.00;99.90
24148;DHT22;12309;51.450;-2.624;2022-10-10T16:28:57;24.00;99.90
24148;DHT22;12309;51.450;-2.624;2022-10-10T16:31:23;24.00;99.90
24148;DHT22;12309;51.450;-2.624;2022-10-10T16:33:50;24.00;99.90
24148;DHT22;12309;51.450;-2.624;2022-10-10T16:36:18;22.80;99.90
24148;DHT22;12309;51.450;-2.624;2022-10-10T16:38:45;22.90;99.90
24148;DHT22;12309;51.450;-2.624;2022-10-10T16:41:13;21.90;99.90
24148;DHT22;12309;51.450;-2.624;2022-10-10T16:43:39;21.80;99.90
24148;DHT22;12309;51.450;-2.624;2022-10-10T16:46:07;19.90;99.90
24148;DHT22;12309;51.450;-2.624;2022-10-10T16:48:35;19.10;99.90
24148;DHT22;12309;51.450;-2.624;2022-10-10T16:51:03;19.10;99.90
24148;DHT22;12309;51.450;-2.624;2022-10-10T16:53:30;18.70;99.90
24148;DHT22;12309;51.450;-2.624;2022-10-10T16:56:00;18.30;99.90
24148;DHT22;12309;51.450;-2.624;2022-10-10T16:58:26;18.00;99.90
24148;DHT22;12309;51.450;-2.624;2022-10-10T17:00:53;17.90;99.90
24148;DHT22;12309;51.450;-2.624;2022-10-10T17:03:19;17.70;99.90
24148;DHT22;12309;51.450;-2.624;2022-10-10T17:05:45;17.30;99.90
24148;DHT22;12309;51.450;-2.624;2022-10-10T17:08:11;17.10;99.90
24148;DHT22;12309;51.450;-2.624;2022-10-10T17:10:37;16.90;99.90
24148;DHT22;12309;51.450;-2.624;2022-10-10T17:13:03;16.70;99.90
24148;DHT22;12309;51.450;-2.624;2022-10-10T17:15:29;16.60;99.90
24148;DHT22;12309;51.450;-2.624;2022-10-10T17:17:54;16.50;99.90
24148;DHT22;12309;51.450;-2.624;2022-10-10T17:20:20;16.40;99.90
24148;DHT22;12309;51.450;-2.624;2022-10-10T17:22:46;16.30;99.90
24148;DHT22;12309;51.450;-2.624;2022-10-10T17:25:12;16.10;99.90
24148;DHT22;12309;51.450;-2.624;2022-10-10T17:27:38;16.00;99.90
24148;DHT22;12309;51.450;-2.624;2022-10-10T17:30:07;15.70;99.90
24148;DHT22;12309;51.450;-2.624;2022-10-10T17:32:35;15.50;99.90
24148;DHT22;12309;51.450;-2.624;2022-10-10T17:35:01;15.40;99.90
24148;DHT22;12309;51.450;-2.624;2022-10-10T17:37:27;15.30;99.90
24148;DHT22;12309;51.450;-2.624;2022-10-10T17:39:52;15.00;99.90
24148;DHT22;12309;51.450;-2.624;2022-10-10T17:42:18;14.90;99.90
24148;DHT22;12309;51.450;-2.624;2022-10-10T17:44:44;14.80;99.90
24148;DHT22;12309;51.450;-2.624;2022-10-10T17:47:09;14.70;99.90
24148;DHT22;12309;51.450;-2.624;2022-10-10T17:49:35;14.40;99.90
24148;DHT22;12309;51.450;-2.624;2022-10-10T17:52:01;14.50;99.90
24148;DHT22;12309;51.450;-2.624;2022-10-10T17:54:26;14.50;99.90
24148;DHT22;12309;51.450;-2.624;2022-10-10T17:56:52;14.40;99.90
24148;DHT22;12309;51.450;-2.624;2022-10-10T17:59:17;14.30;99.90
24148;DHT22;12309;51.450;-2.624;2022-10-10T18:01:43;14.10;99.90
24148;DHT22;12309;51.450;-2.624;2022-10-10T18:04:10;14.20;99.90
24148;DHT22;12309;51.450;-2.624;2022-10-10T18:06:38;14.30;99.90
24148;DHT22;12309;51.450;-2.624;2022-10-10T18:09:04;14.10;99.90
24148;DHT22;12309;51.450;-2.624;2022-10-10T18:11:30;13.80;99.90
24148;DHT22;12309;51.450;-2.624;2022-10-10T18:13:57;13.90;99.90
24148;DHT22;12309;51.450;-2.624;2022-10-10T18:16:26;13.90;99.90
24148;DHT22;12309;51.450;-2.624;2022-10-10T18:18:52;13.90;99.90